WetterOnline ( https://www.wetteronline.de )

Wetter aktuell Bocholtz

Aktuelles Wetter: Aachen-Orsbach (231m)

6-stündlich | Neueste Meldungen
Ortszeit Temperatur Wetter
Mo, 26.07. 2:00 18.0° C bewölkt
So, 25.07. 20:00 19.1° C bewölkt
So, 25.07. 14:00 21.6° C -
So, 25.07. 8:00 17.7° C wolkenlos
So, 25.07. 2:00 14.6° C fast wolkenlos
Sa, 24.07. 20:00 20.6° C bedeckt
Sa, 24.07. 14:00 17.7° C leichter Regen
Sa, 24.07. 8:00 17.3° C bedeckt
Ortszeit Temperatur Wetter
Mo, 26.07. 7:30 16.3° C wolkig
Mo, 26.07. 7:20 16.3° C wolkig
Mo, 26.07. 7:10 16.3° C leicht bewölkt
Mo, 26.07. 7:00 16.3° C wolkig
Mo, 26.07. 6:50 16.3° C wolkig
Mo, 26.07. 6:40 16.2° C wolkig
Mo, 26.07. 6:30 16.4° C wolkig
Mo, 26.07. 6:00 16.4° C wolkig
Mo, 26.07. 5:30 16.5° C wolkig
Mo, 26.07. 5:00 16.7° C leicht bewölkt
Mo, 26.07. 4:30 17.1° C wolkig
Ortszeit Relative Feuchte Sichtweite
Mo, 26.07. 2:00 80% 55 km
So, 25.07. 20:00 88% 40 km
So, 25.07. 14:00 71% 60 km
So, 25.07. 8:00 81% 55 km
So, 25.07. 2:00 93% 30 km
Sa, 24.07. 20:00 79% 35 km
Sa, 24.07. 14:00 92% 13 km
Sa, 24.07. 8:00 81% 27 km
Ortszeit Relative Feuchte Sichtweite
Mo, 26.07. 7:30 87% 50 km
Mo, 26.07. 7:20 87% -
Mo, 26.07. 7:10 87% -
Mo, 26.07. 7:00 87% 55 km
Mo, 26.07. 6:50 87% -
Mo, 26.07. 6:40 87% -
Mo, 26.07. 6:30 86% 55 km
Mo, 26.07. 6:00 86% 50 km
Mo, 26.07. 5:30 86% 55 km
Mo, 26.07. 5:00 86% 55 km
Mo, 26.07. 4:30 84% 50 km
Ortszeit Niederschlagsmenge Niederschlagsart
Mo, 26.07. 2:00 0.1 l/m2 in 6 Std. Regen
So, 25.07. 20:00 6 l/m2 in 12 Std. Regen
So, 25.07. 14:00 2 l/m2 in 6 Std. Regen
So, 25.07. 8:00 0.1 l/m2 in 12 Std. -
So, 25.07. 2:00 0.1 l/m2 in 6 Std. Regen
Sa, 24.07. 20:00 3 l/m2 in 12 Std. Regen
Sa, 24.07. 14:00 1 l/m2 in 6 Std. Regen
Sa, 24.07. 8:00 0.0 l/m2 in 12 Std. -
Ortszeit Niederschlagsmenge Niederschlagsart
Mo, 26.07. 7:30 0.0 l/m2 in 1 Std. -
Mo, 26.07. 7:20 keine Meldung -
Mo, 26.07. 7:10 keine Meldung -
Mo, 26.07. 7:00 0.0 l/m2 in 1 Std. -
Mo, 26.07. 6:50 keine Meldung -
Mo, 26.07. 6:40 keine Meldung -
Mo, 26.07. 6:30 0.0 l/m2 in 1 Std. -
Mo, 26.07. 6:00 0.0 l/m2 in 1 Std. -
Mo, 26.07. 5:30 0.0 l/m2 in 1 Std. -
Mo, 26.07. 5:00 0.0 l/m2 in 1 Std. -
Mo, 26.07. 4:30 0.0 l/m2 in 1 Std. -
Ortszeit Stärke Spitze Richtung
km/h Bft. km/h Grad Sektor
Mo, 26.07. 2:00 9 2 24 180° S
So, 25.07. 20:00 9 2 41 180° S
So, 25.07. 14:00 7 2 25 240° SW
So, 25.07. 8:00 11 2 20 200° S
So, 25.07. 2:00 11 2 36 130° SO
Sa, 24.07. 20:00 7 2 28 240° SW
Sa, 24.07. 14:00 18 3 29 220° SW
Sa, 24.07. 8:00 13 3 24 110° O
Ortszeit Stärke Spitze Richtung
km/h Bft. km/h Grad Sektor
Mo, 26.07. 7:30 17 3 31 200° S
Mo, 26.07. 7:20 17 3 - 200° S
Mo, 26.07. 7:10 18 3 - 200° S
Mo, 26.07. 7:00 17 3 28 190° S
Mo, 26.07. 6:50 17 3 - 190° S
Mo, 26.07. 6:40 17 3 - 190° S
Mo, 26.07. 6:30 17 3 26 190° S
Mo, 26.07. 6:00 11 2 30 210° SW
Mo, 26.07. 5:30 14 3 29 200° S
Mo, 26.07. 5:00 18 3 29 190° S
Mo, 26.07. 4:30 13 3 22 200° S
Ortszeit Untergrenze Bedeckung Gattung
total tief tief mittel hoch
Mo, 26.07. 2:00 2700 m 7/8 7/8 - - -
So, 25.07. 20:00 2700 m 7/8 7/8 - - -
So, 25.07. 14:00 - - - - - -
So, 25.07. 8:00 - 0/8 0/8 - - -
So, 25.07. 2:00 7800 m 1/8 0/8 - - -
Sa, 24.07. 20:00 3600 m 8/8 8/8 - - -
Sa, 24.07. 14:00 2700 m 8/8 8/8 - - -
Sa, 24.07. 8:00 3900 m 8/8 8/8 - - -
Ortszeit Bedeckungsgrad in Achtel und Wolkenuntergrenze
Mo, 26.07. 7:30 5(2700m) 6(7200m)
Mo, 26.07. 7:20 5(2700m) 6(7200m)
Mo, 26.07. 7:10 3(3000m) 4(7200m)
Mo, 26.07. 7:00 4(3000m) 5(7200m) 6(7800m)
Mo, 26.07. 6:50 4(3000m) 5(7200m) 6(7800m)
Mo, 26.07. 6:40 3(3600m) 5(7200m) 6(7800m)
Mo, 26.07. 6:30 4(3600m) 5(8100m) 6(8700m)
Mo, 26.07. 6:00 1(3000m) 7(7500m) 6(8400m)
Mo, 26.07. 5:30 1(3900m) 8(7500m)
Mo, 26.07. 5:00 1(3000m) 6(7800m) 6(8700m)
Mo, 26.07. 4:30 5(3000m) 6(7500m) 7(8100m)
Ortszeit Luftdruck NN (hPa) Tendenz (hPa in 3 Std.)
Mo, 26.07. 2:00 1009 + 0,1
So, 25.07. 20:00 1008 0,0
So, 25.07. 14:00 1008 - 0,1
So, 25.07. 8:00 1008 + 0,2
So, 25.07. 2:00 1009 - 0,1
Sa, 24.07. 20:00 1009 + 0,1
Sa, 24.07. 14:00 1010 + 0,7
Sa, 24.07. 8:00 1009 - 0,7
Ortszeit Luftdruck NN (hPa) Tendenz (hPa in 3 Std.)
Mo, 26.07. 7:30 1010 + 0,8
Mo, 26.07. 7:20 1010 keine Meldung
Mo, 26.07. 7:10 1010 keine Meldung
Mo, 26.07. 7:00 1010 + 0,9
Mo, 26.07. 6:50 1010 keine Meldung
Mo, 26.07. 6:40 1010 keine Meldung
Mo, 26.07. 6:30 1010 + 0,6
Mo, 26.07. 6:00 1010 + 0,6
Mo, 26.07. 5:30 1010 + 0,3
Mo, 26.07. 5:00 1009 - 0,3
Mo, 26.07. 4:30 1009 - 0,4
Ortszeit Schneehöhe (cm)
Mo, 26.07. 2:00 -
So, 25.07. 20:00 -
So, 25.07. 14:00 -
So, 25.07. 8:00 -
So, 25.07. 2:00 -
Sa, 24.07. 20:00 -
Sa, 24.07. 14:00 -
Sa, 24.07. 8:00 -
Ortszeit Schneehöhe (cm)
Mo, 26.07. 7:30 -
Mo, 26.07. 7:20 -
Mo, 26.07. 7:10 -
Mo, 26.07. 7:00 -
Mo, 26.07. 6:50 -
Mo, 26.07. 6:40 -
Mo, 26.07. 6:30 -
Mo, 26.07. 6:00 -
Mo, 26.07. 5:30 -
Mo, 26.07. 5:00 -
Mo, 26.07. 4:30 -
Link zu dieser Seite / Seite empfehlen

Das Wetter in ...